sensor_id;sensor_type;location;lat;lon;timestamp;P1;durP1;ratioP1;P2;durP2;ratioP2
24897;SDS011;12957;49.434;8.684;2022-08-04T00:04:14;2.67;;;2.47;;
24897;SDS011;12957;49.434;8.684;2022-08-04T00:12:09;3.42;;;2.00;;
24897;SDS011;12957;49.434;8.684;2022-08-04T00:14:36;3.78;;;2.03;;
24897;SDS011;12957;49.434;8.684;2022-08-04T00:17:04;4.63;;;2.20;;
24897;SDS011;12957;49.434;8.684;2022-08-04T00:19:40;2.67;;;2.03;;
24897;SDS011;12957;49.434;8.684;2022-08-04T00:22:09;2.38;;;2.17;;
24897;SDS011;12957;49.434;8.684;2022-08-04T00:24:35;2.53;;;2.20;;
24897;SDS011;12957;49.434;8.684;2022-08-04T00:27:00;1.70;;;1.70;;
24897;SDS011;12957;49.434;8.684;2022-08-04T00:29:26;3.38;;;2.20;;
24897;SDS011;12957;49.434;8.684;2022-08-04T00:31:52;2.60;;;2.40;;
24897;SDS011;12957;49.434;8.684;2022-08-04T00:34:19;2.28;;;2.17;;
24897;SDS011;12957;49.434;8.684;2022-08-04T00:36:45;2.13;;;2.00;;
24897;SDS011;12957;49.434;8.684;2022-08-04T00:39:11;2.00;;;1.90;;
24897;SDS011;12957;49.434;8.684;2022-08-04T00:44:16;5.32;;;2.10;;
24897;SDS011;12957;49.434;8.684;2022-08-04T00:50:07;2.20;;;2.00;;
24897;SDS011;12957;49.434;8.684;2022-08-04T00:52:43;2.53;;;2.05;;
24897;SDS011;12957;49.434;8.684;2022-08-04T00:58:22;2.47;;;2.15;;
24897;SDS011;12957;49.434;8.684;2022-08-04T01:03:36;2.40;;;2.00;;
24897;SDS011;12957;49.434;8.684;2022-08-04T01:09:02;4.30;;;1.70;;
24897;SDS011;12957;49.434;8.684;2022-08-04T01:17:20;1.40;;;1.40;;
24897;SDS011;12957;49.434;8.684;2022-08-04T01:30:11;5.22;;;1.70;;
24897;SDS011;12957;49.434;8.684;2022-08-04T01:32:38;1.95;;;1.85;;
24897;SDS011;12957;49.434;8.684;2022-08-04T01:35:12;3.08;;;1.88;;
24897;SDS011;12957;49.434;8.684;2022-08-04T01:40:33;2.45;;;2.25;;
24897;SDS011;12957;49.434;8.684;2022-08-04T01:42:59;3.33;;;2.00;;
24897;SDS011;12957;49.434;8.684;2022-08-04T01:45:26;2.20;;;2.10;;
24897;SDS011;12957;49.434;8.684;2022-08-04T01:47:53;6.65;;;2.13;;
24897;SDS011;12957;49.434;8.684;2022-08-04T01:50:20;2.47;;;1.88;;
24897;SDS011;12957;49.434;8.684;2022-08-04T01:52:46;2.42;;;2.20;;
24897;SDS011;12957;49.434;8.684;2022-08-04T01:55:12;2.40;;;2.20;;
24897;SDS011;12957;49.434;8.684;2022-08-04T01:57:42;2.15;;;2.05;;
24897;SDS011;12957;49.434;8.684;2022-08-04T02:00:09;2.10;;;2.00;;
24897;SDS011;12957;49.434;8.684;2022-08-04T02:02:36;2.75;;;2.30;;
24897;SDS011;12957;49.434;8.684;2022-08-04T02:05:02;2.10;;;1.90;;
24897;SDS011;12957;49.434;8.684;2022-08-04T02:13:05;1.85;;;1.73;;
24897;SDS011;12957;49.434;8.684;2022-08-04T02:15:39;1.65;;;1.55;;
24897;SDS011;12957;49.434;8.684;2022-08-04T02:18:20;2.40;;;1.60;;
24897;SDS011;12957;49.434;8.684;2022-08-04T02:21:06;2.65;;;1.67;;
24897;SDS011;12957;49.434;8.684;2022-08-04T02:23:36;1.45;;;1.40;;
24897;SDS011;12957;49.434;8.684;2022-08-04T02:26:03;1.65;;;1.48;;
24897;SDS011;12957;49.434;8.684;2022-08-04T02:28:44;4.60;;;1.50;;
24897;SDS011;12957;49.434;8.684;2022-08-04T02:33:44;1.70;;;1.60;;
24897;SDS011;12957;49.434;8.684;2022-08-04T02:36:16;6.32;;;1.60;;
24897;SDS011;12957;49.434;8.684;2022-08-04T02:38:51;1.95;;;1.30;;
24897;SDS011;12957;49.434;8.684;2022-08-04T02:41:24;1.73;;;1.60;;
24897;SDS011;12957;49.434;8.684;2022-08-04T02:43:51;3.25;;;1.50;;
24897;SDS011;12957;49.434;8.684;2022-08-04T02:46:20;4.07;;;1.55;;
24897;SDS011;12957;49.434;8.684;2022-08-04T02:48:46;2.92;;;1.67;;
24897;SDS011;12957;49.434;8.684;2022-08-04T02:51:13;1.40;;;1.30;;
24897;SDS011;12957;49.434;8.684;2022-08-04T02:53:40;1.50;;;1.50;;
24897;SDS011;12957;49.434;8.684;2022-08-04T02:56:06;3.08;;;1.40;;
24897;SDS011;12957;49.434;8.684;2022-08-04T02:58:33;2.72;;;1.60;;
24897;SDS011;12957;49.434;8.684;2022-08-04T03:00:59;4.13;;;1.60;;
24897;SDS011;12957;49.434;8.684;2022-08-04T03:23:23;2.58;;;1.77;;
24897;SDS011;12957;49.434;8.684;2022-08-04T03:42:45;1.75;;;1.50;;
24897;SDS011;12957;49.434;8.684;2022-08-04T03:56:25;6.43;;;1.50;;
24897;SDS011;12957;49.434;8.684;2022-08-04T04:02:05;2.53;;;1.80;;
24897;SDS011;12957;49.434;8.684;2022-08-04T04:16:06;3.88;;;2.47;;
24897;SDS011;12957;49.434;8.684;2022-08-04T04:33:38;9.98;;;3.10;;
24897;SDS011;12957;49.434;8.684;2022-08-04T04:37:00;6.65;;;3.08;;
24897;SDS011;12957;49.434;8.684;2022-08-04T04:45:02;2.83;;;2.60;;
24897;SDS011;12957;49.434;8.684;2022-08-04T04:47:44;2.55;;;2.35;;
24897;SDS011;12957;49.434;8.684;2022-08-04T04:53:26;5.47;;;2.70;;
24897;SDS011;12957;49.434;8.684;2022-08-04T04:58:53;3.53;;;2.70;;
24897;SDS011;12957;49.434;8.684;2022-08-04T05:10:02;2.70;;;2.50;;
24897;SDS011;12957;49.434;8.684;2022-08-04T05:15:25;6.30;;;2.70;;
24897;SDS011;12957;49.434;8.684;2022-08-04T05:17:54;2.70;;;2.50;;
24897;SDS011;12957;49.434;8.684;2022-08-04T05:20:22;3.33;;;2.42;;
24897;SDS011;12957;49.434;8.684;2022-08-04T05:25:34;3.55;;;2.60;;
24897;SDS011;12957;49.434;8.684;2022-08-04T05:28:09;3.60;;;2.53;;
24897;SDS011;12957;49.434;8.684;2022-08-04T05:30:39;5.75;;;2.67;;
24897;SDS011;12957;49.434;8.684;2022-08-04T05:33:18;5.28;;;2.40;;
24897;SDS011;12957;49.434;8.684;2022-08-04T05:35:51;11.75;;;2.72;;
24897;SDS011;12957;49.434;8.684;2022-08-04T05:38:21;3.55;;;2.47;;
24897;SDS011;12957;49.434;8.684;2022-08-04T05:40:48;3.58;;;2.45;;
24897;SDS011;12957;49.434;8.684;2022-08-04T05:43:13;2.95;;;2.30;;
24897;SDS011;12957;49.434;8.684;2022-08-04T05:45:40;5.65;;;2.70;;
24897;SDS011;12957;49.434;8.684;2022-08-04T05:48:07;3.03;;;2.47;;
24897;SDS011;12957;49.434;8.684;2022-08-04T05:50:33;5.75;;;2.33;;
24897;SDS011;12957;49.434;8.684;2022-08-04T05:52:59;4.43;;;2.40;;
24897;SDS011;12957;49.434;8.684;2022-08-04T05:55:25;9.13;;;3.08;;
24897;SDS011;12957;49.434;8.684;2022-08-04T05:57:54;6.85;;;2.88;;
24897;SDS011;12957;49.434;8.684;2022-08-04T06:00:21;3.97;;;2.50;;
24897;SDS011;12957;49.434;8.684;2022-08-04T06:05:33;5.72;;;2.90;;
24897;SDS011;12957;49.434;8.684;2022-08-04T06:07:59;9.00;;;2.95;;
24897;SDS011;12957;49.434;8.684;2022-08-04T06:10:25;7.22;;;2.92;;
24897;SDS011;12957;49.434;8.684;2022-08-04T06:12:52;6.57;;;2.83;;
24897;SDS011;12957;49.434;8.684;2022-08-04T06:15:20;4.88;;;3.10;;
24897;SDS011;12957;49.434;8.684;2022-08-04T06:17:49;6.07;;;3.30;;
24897;SDS011;12957;49.434;8.684;2022-08-04T06:20:17;6.72;;;3.20;;
24897;SDS011;12957;49.434;8.684;2022-08-04T06:22:43;8.45;;;3.22;;
24897;SDS011;12957;49.434;8.684;2022-08-04T06:25:13;13.85;;;3.92;;
24897;SDS011;12957;49.434;8.684;2022-08-04T06:27:41;5.68;;;2.70;;
24897;SDS011;12957;49.434;8.684;2022-08-04T06:30:07;3.88;;;2.95;;
24897;SDS011;12957;49.434;8.684;2022-08-04T06:32:38;4.72;;;2.80;;
24897;SDS011;12957;49.434;8.684;2022-08-04T06:35:13;8.07;;;3.20;;
24897;SDS011;12957;49.434;8.684;2022-08-04T06:37:40;5.85;;;3.10;;
24897;SDS011;12957;49.434;8.684;2022-08-04T06:40:06;7.43;;;3.10;;
24897;SDS011;12957;49.434;8.684;2022-08-04T06:42:32;6.15;;;3.00;;
24897;SDS011;12957;49.434;8.684;2022-08-04T06:44:58;9.65;;;3.47;;
24897;SDS011;12957;49.434;8.684;2022-08-04T06:47:24;4.97;;;2.78;;
24897;SDS011;12957;49.434;8.684;2022-08-04T06:49:51;6.30;;;3.05;;
24897;SDS011;12957;49.434;8.684;2022-08-04T06:52:18;7.10;;;3.00;;
24897;SDS011;12957;49.434;8.684;2022-08-04T06:54:44;9.18;;;3.17;;
24897;SDS011;12957;49.434;8.684;2022-08-04T06:57:10;5.90;;;2.83;;
24897;SDS011;12957;49.434;8.684;2022-08-04T06:59:39;7.43;;;3.10;;
24897;SDS011;12957;49.434;8.684;2022-08-04T07:02:19;3.88;;;2.03;;
24897;SDS011;12957;49.434;8.684;2022-08-04T07:04:46;1.90;;;1.80;;
24897;SDS011;12957;49.434;8.684;2022-08-04T07:07:12;6.50;;;2.60;;
24897;SDS011;12957;49.434;8.684;2022-08-04T07:09:38;2.92;;;2.60;;
24897;SDS011;12957;49.434;8.684;2022-08-04T07:12:04;3.90;;;2.70;;
24897;SDS011;12957;49.434;8.684;2022-08-04T07:14:50;5.85;;;2.50;;
24897;SDS011;12957;49.434;8.684;2022-08-04T07:17:15;6.03;;;2.60;;
24897;SDS011;12957;49.434;8.684;2022-08-04T07:19:43;2.30;;;1.75;;
24897;SDS011;12957;49.434;8.684;2022-08-04T07:22:08;1.70;;;1.60;;
24897;SDS011;12957;49.434;8.684;2022-08-04T07:24:35;1.60;;;1.50;;
24897;SDS011;12957;49.434;8.684;2022-08-04T07:27:02;1.67;;;1.42;;
24897;SDS011;12957;49.434;8.684;2022-08-04T07:29:28;3.97;;;1.48;;
24897;SDS011;12957;49.434;8.684;2022-08-04T07:31:54;3.17;;;1.80;;
24897;SDS011;12957;49.434;8.684;2022-08-04T07:34:20;5.32;;;1.70;;
24897;SDS011;12957;49.434;8.684;2022-08-04T07:36:47;1.60;;;1.33;;
24897;SDS011;12957;49.434;8.684;2022-08-04T07:39:13;3.25;;;1.55;;
24897;SDS011;12957;49.434;8.684;2022-08-04T07:41:40;2.20;;;1.60;;
24897;SDS011;12957;49.434;8.684;2022-08-04T07:44:06;1.50;;;1.40;;
24897;SDS011;12957;49.434;8.684;2022-08-04T07:46:32;3.80;;;1.40;;
24897;SDS011;12957;49.434;8.684;2022-08-04T07:48:58;2.45;;;1.50;;
24897;SDS011;12957;49.434;8.684;2022-08-04T07:51:24;1.73;;;1.60;;
24897;SDS011;12957;49.434;8.684;2022-08-04T07:53:51;1.77;;;1.67;;
24897;SDS011;12957;49.434;8.684;2022-08-04T07:56:16;2.97;;;1.45;;
24897;SDS011;12957;49.434;8.684;2022-08-04T07:58:42;2.60;;;1.60;;
24897;SDS011;12957;49.434;8.684;2022-08-04T08:01:08;1.40;;;1.40;;
24897;SDS011;12957;49.434;8.684;2022-08-04T08:03:34;4.75;;;1.90;;
24897;SDS011;12957;49.434;8.684;2022-08-04T08:06:00;4.85;;;2.00;;
24897;SDS011;12957;49.434;8.684;2022-08-04T08:08:25;2.53;;;1.90;;
24897;SDS011;12957;49.434;8.684;2022-08-04T08:10:51;1.92;;;1.80;;
24897;SDS011;12957;49.434;8.684;2022-08-04T08:13:17;1.80;;;1.70;;
24897;SDS011;12957;49.434;8.684;2022-08-04T08:15:44;2.30;;;1.52;;
24897;SDS011;12957;49.434;8.684;2022-08-04T08:18:10;4.63;;;2.20;;
24897;SDS011;12957;49.434;8.684;2022-08-04T08:20:36;1.88;;;1.77;;
24897;SDS011;12957;49.434;8.684;2022-08-04T08:23:02;4.60;;;1.92;;
24897;SDS011;12957;49.434;8.684;2022-08-04T08:25:31;2.88;;;2.13;;
24897;SDS011;12957;49.434;8.684;2022-08-04T08:27:57;4.03;;;2.20;;
24897;SDS011;12957;49.434;8.684;2022-08-04T08:30:23;2.17;;;2.03;;
24897;SDS011;12957;49.434;8.684;2022-08-04T08:32:49;2.70;;;2.00;;
24897;SDS011;12957;49.434;8.684;2022-08-04T08:35:14;2.03;;;1.90;;
24897;SDS011;12957;49.434;8.684;2022-08-04T08:37:44;3.88;;;2.10;;
24897;SDS011;12957;49.434;8.684;2022-08-04T08:47:48;3.53;;;2.10;;
24897;SDS011;12957;49.434;8.684;2022-08-04T08:53:34;2.75;;;2.28;;
24897;SDS011;12957;49.434;8.684;2022-08-04T08:56:14;3.83;;;2.20;;
24897;SDS011;12957;49.434;8.684;2022-08-04T09:01:59;6.45;;;2.58;;
24897;SDS011;12957;49.434;8.684;2022-08-04T09:07:30;4.50;;;2.55;;
24897;SDS011;12957;49.434;8.684;2022-08-04T09:21:17;2.42;;;2.30;;
24897;SDS011;12957;49.434;8.684;2022-08-04T09:32:11;6.35;;;2.58;;
24897;SDS011;12957;49.434;8.684;2022-08-04T09:37:47;4.65;;;2.00;;
24897;SDS011;12957;49.434;8.684;2022-08-04T09:40:22;2.17;;;2.08;;
24897;SDS011;12957;49.434;8.684;2022-08-04T09:46:01;3.63;;;2.35;;
24897;SDS011;12957;49.434;8.684;2022-08-04T09:59:41;4.90;;;2.28;;
24897;SDS011;12957;49.434;8.684;2022-08-04T10:02:16;4.47;;;1.98;;
24897;SDS011;12957;49.434;8.684;2022-08-04T10:04:43;2.67;;;2.45;;
24897;SDS011;12957;49.434;8.684;2022-08-04T10:07:23;9.55;;;2.53;;
24897;SDS011;12957;49.434;8.684;2022-08-04T10:15:28;2.55;;;2.45;;
24897;SDS011;12957;49.434;8.684;2022-08-04T10:28:30;4.60;;;2.50;;
24897;SDS011;12957;49.434;8.684;2022-08-04T10:31:03;7.25;;;2.38;;
24897;SDS011;12957;49.434;8.684;2022-08-04T10:33:41;3.28;;;2.30;;
24897;SDS011;12957;49.434;8.684;2022-08-04T10:36:12;2.50;;;2.30;;
24897;SDS011;12957;49.434;8.684;2022-08-04T10:46:20;4.22;;;2.10;;
24897;SDS011;12957;49.434;8.684;2022-08-04T10:49:09;4.55;;;2.45;;
24897;SDS011;12957;49.434;8.684;2022-08-04T10:51:49;5.78;;;2.53;;
24897;SDS011;12957;49.434;8.684;2022-08-04T10:57:07;2.60;;;2.22;;
24897;SDS011;12957;49.434;8.684;2022-08-04T10:59:38;5.63;;;2.95;;
24897;SDS011;12957;49.434;8.684;2022-08-04T11:02:24;2.75;;;2.55;;
24897;SDS011;12957;49.434;8.684;2022-08-04T11:04:54;4.82;;;2.40;;
24897;SDS011;12957;49.434;8.684;2022-08-04T11:07:42;3.22;;;2.72;;
24897;SDS011;12957;49.434;8.684;2022-08-04T11:10:10;2.92;;;2.33;;
24897;SDS011;12957;49.434;8.684;2022-08-04T11:12:37;3.00;;;2.50;;
24897;SDS011;12957;49.434;8.684;2022-08-04T11:15:14;2.95;;;2.40;;
24897;SDS011;12957;49.434;8.684;2022-08-04T11:17:45;7.38;;;2.65;;
24897;SDS011;12957;49.434;8.684;2022-08-04T11:22:39;2.55;;;2.35;;
24897;SDS011;12957;49.434;8.684;2022-08-04T11:25:12;5.63;;;2.28;;
24897;SDS011;12957;49.434;8.684;2022-08-04T11:30:37;2.05;;;1.95;;
24897;SDS011;12957;49.434;8.684;2022-08-04T11:33:09;3.13;;;2.10;;
24897;SDS011;12957;49.434;8.684;2022-08-04T11:35:54;3.50;;;2.15;;
24897;SDS011;12957;49.434;8.684;2022-08-04T11:38:30;4.97;;;2.00;;
24897;SDS011;12957;49.434;8.684;2022-08-04T11:41:03;3.25;;;2.13;;
24897;SDS011;12957;49.434;8.684;2022-08-04T11:43:34;5.57;;;1.98;;
24897;SDS011;12957;49.434;8.684;2022-08-04T11:46:08;3.30;;;1.90;;
24897;SDS011;12957;49.434;8.684;2022-08-04T11:48:44;3.13;;;2.13;;
24897;SDS011;12957;49.434;8.684;2022-08-04T11:51:14;3.33;;;1.73;;
24897;SDS011;12957;49.434;8.684;2022-08-04T11:53:40;3.28;;;1.70;;
24897;SDS011;12957;49.434;8.684;2022-08-04T11:56:09;6.60;;;1.70;;
24897;SDS011;12957;49.434;8.684;2022-08-04T11:58:36;4.25;;;1.52;;
24897;SDS011;12957;49.434;8.684;2022-08-04T12:01:07;1.70;;;1.60;;
24897;SDS011;12957;49.434;8.684;2022-08-04T12:03:38;1.65;;;1.50;;
24897;SDS011;12957;49.434;8.684;2022-08-04T12:06:24;2.55;;;1.45;;
24897;SDS011;12957;49.434;8.684;2022-08-04T12:11:51;2.60;;;1.60;;
24897;SDS011;12957;49.434;8.684;2022-08-04T12:17:05;1.70;;;1.60;;
24897;SDS011;12957;49.434;8.684;2022-08-04T12:19:36;2.95;;;1.50;;
24897;SDS011;12957;49.434;8.684;2022-08-04T12:22:07;1.85;;;1.60;;
24897;SDS011;12957;49.434;8.684;2022-08-04T12:27:30;1.60;;;1.42;;
24897;SDS011;12957;49.434;8.684;2022-08-04T12:29:57;2.70;;;1.80;;
24897;SDS011;12957;49.434;8.684;2022-08-04T12:35:26;1.38;;;1.35;;
24897;SDS011;12957;49.434;8.684;2022-08-04T12:38:05;2.38;;;1.30;;
24897;SDS011;12957;49.434;8.684;2022-08-04T12:40:43;2.35;;;1.40;;
24897;SDS011;12957;49.434;8.684;2022-08-04T12:45:49;1.40;;;1.30;;
24897;SDS011;12957;49.434;8.684;2022-08-04T12:48:17;2.97;;;1.58;;
24897;SDS011;12957;49.434;8.684;2022-08-04T12:50:46;1.65;;;1.55;;
24897;SDS011;12957;49.434;8.684;2022-08-04T12:53:14;2.15;;;1.45;;
24897;SDS011;12957;49.434;8.684;2022-08-04T12:55:50;3.22;;;1.38;;
24897;SDS011;12957;49.434;8.684;2022-08-04T12:58:17;1.55;;;1.45;;
24897;SDS011;12957;49.434;8.684;2022-08-04T13:01:19;1.60;;;1.50;;
24897;SDS011;12957;49.434;8.684;2022-08-04T13:03:55;2.78;;;1.65;;
24897;SDS011;12957;49.434;8.684;2022-08-04T13:06:29;2.60;;;1.45;;
24897;SDS011;12957;49.434;8.684;2022-08-04T13:09:01;1.40;;;1.30;;
24897;SDS011;12957;49.434;8.684;2022-08-04T13:11:39;1.42;;;1.42;;
24897;SDS011;12957;49.434;8.684;2022-08-04T13:14:05;3.28;;;1.60;;
24897;SDS011;12957;49.434;8.684;2022-08-04T13:16:32;1.52;;;1.42;;
24897;SDS011;12957;49.434;8.684;2022-08-04T13:18:58;1.52;;;1.40;;
24897;SDS011;12957;49.434;8.684;2022-08-04T13:21:25;1.70;;;1.60;;
24897;SDS011;12957;49.434;8.684;2022-08-04T13:23:54;2.72;;;1.45;;
24897;SDS011;12957;49.434;8.684;2022-08-04T13:26:22;1.90;;;1.42;;
24897;SDS011;12957;49.434;8.684;2022-08-04T13:28:49;2.42;;;1.50;;
24897;SDS011;12957;49.434;8.684;2022-08-04T13:31:17;1.50;;;1.40;;
24897;SDS011;12957;49.434;8.684;2022-08-04T13:33:46;3.33;;;1.73;;
24897;SDS011;12957;49.434;8.684;2022-08-04T13:36:13;2.83;;;1.60;;
24897;SDS011;12957;49.434;8.684;2022-08-04T13:38:46;3.83;;;1.45;;
24897;SDS011;12957;49.434;8.684;2022-08-04T13:41:14;4.40;;;1.65;;
24897;SDS011;12957;49.434;8.684;2022-08-04T13:43:45;5.72;;;1.50;;
24897;SDS011;12957;49.434;8.684;2022-08-04T13:46:13;1.60;;;1.50;;
24897;SDS011;12957;49.434;8.684;2022-08-04T13:48:42;3.50;;;1.60;;
24897;SDS011;12957;49.434;8.684;2022-08-04T13:51:08;1.42;;;1.35;;
24897;SDS011;12957;49.434;8.684;2022-08-04T13:53:37;3.83;;;1.63;;
24897;SDS011;12957;49.434;8.684;2022-08-04T13:56:06;2.70;;;1.88;;
24897;SDS011;12957;49.434;8.684;2022-08-04T13:58:34;3.53;;;1.70;;
24897;SDS011;12957;49.434;8.684;2022-08-04T14:01:05;1.67;;;1.63;;
24897;SDS011;12957;49.434;8.684;2022-08-04T14:03:58;1.95;;;1.67;;
24897;SDS011;12957;49.434;8.684;2022-08-04T14:06:29;1.40;;;1.40;;
24897;SDS011;12957;49.434;8.684;2022-08-04T14:09:15;2.45;;;1.67;;
24897;SDS011;12957;49.434;8.684;2022-08-04T14:11:50;5.45;;;2.00;;
24897;SDS011;12957;49.434;8.684;2022-08-04T14:14:24;3.25;;;1.60;;
24897;SDS011;12957;49.434;8.684;2022-08-04T14:19:29;1.48;;;1.42;;
24897;SDS011;12957;49.434;8.684;2022-08-04T14:25:43;1.73;;;1.63;;
24897;SDS011;12957;49.434;8.684;2022-08-04T14:28:08;2.60;;;1.58;;
24897;SDS011;12957;49.434;8.684;2022-08-04T14:30:35;4.40;;;1.50;;
24897;SDS011;12957;49.434;8.684;2022-08-04T14:33:02;2.83;;;1.67;;
24897;SDS011;12957;49.434;8.684;2022-08-04T14:35:29;1.83;;;1.73;;
24897;SDS011;12957;49.434;8.684;2022-08-04T14:37:58;2.17;;;1.70;;
24897;SDS011;12957;49.434;8.684;2022-08-04T14:40:31;3.50;;;1.50;;
24897;SDS011;12957;49.434;8.684;2022-08-04T14:42:58;2.47;;;1.65;;
24897;SDS011;12957;49.434;8.684;2022-08-04T14:48:07;1.52;;;1.40;;
24897;SDS011;12957;49.434;8.684;2022-08-04T14:50:39;2.28;;;1.70;;
24897;SDS011;12957;49.434;8.684;2022-08-04T14:55:46;2.42;;;1.55;;
24897;SDS011;12957;49.434;8.684;2022-08-04T14:58:16;2.42;;;1.60;;
24897;SDS011;12957;49.434;8.684;2022-08-04T15:00:46;1.63;;;1.58;;
24897;SDS011;12957;49.434;8.684;2022-08-04T15:03:12;4.03;;;1.55;;
24897;SDS011;12957;49.434;8.684;2022-08-04T15:05:40;2.05;;;1.40;;
24897;SDS011;12957;49.434;8.684;2022-08-04T15:08:06;4.50;;;1.75;;
24897;SDS011;12957;49.434;8.684;2022-08-04T15:10:32;4.20;;;1.80;;
24897;SDS011;12957;49.434;8.684;2022-08-04T15:12:58;2.83;;;1.50;;
24897;SDS011;12957;49.434;8.684;2022-08-04T15:15:26;3.15;;;1.92;;
24897;SDS011;12957;49.434;8.684;2022-08-04T15:17:51;1.73;;;1.60;;
24897;SDS011;12957;49.434;8.684;2022-08-04T15:20:18;2.65;;;1.73;;
24897;SDS011;12957;49.434;8.684;2022-08-04T15:22:43;1.90;;;1.80;;
24897;SDS011;12957;49.434;8.684;2022-08-04T15:25:09;1.75;;;1.65;;
24897;SDS011;12957;49.434;8.684;2022-08-04T15:27:35;1.83;;;1.77;;
24897;SDS011;12957;49.434;8.684;2022-08-04T15:30:03;2.33;;;1.70;;
24897;SDS011;12957;49.434;8.684;2022-08-04T15:32:33;4.97;;;1.60;;
24897;SDS011;12957;49.434;8.684;2022-08-04T15:35:02;1.63;;;1.52;;
24897;SDS011;12957;49.434;8.684;2022-08-04T15:37:30;1.77;;;1.67;;
24897;SDS011;12957;49.434;8.684;2022-08-04T15:40:18;1.90;;;1.50;;
24897;SDS011;12957;49.434;8.684;2022-08-04T15:45:30;1.77;;;1.67;;
24897;SDS011;12957;49.434;8.684;2022-08-04T15:50:28;1.70;;;1.52;;
24897;SDS011;12957;49.434;8.684;2022-08-04T15:55:35;2.83;;;1.52;;
24897;SDS011;12957;49.434;8.684;2022-08-04T15:58:05;3.45;;;1.75;;
24897;SDS011;12957;49.434;8.684;2022-08-04T16:03:39;2.90;;;1.70;;
24897;SDS011;12957;49.434;8.684;2022-08-04T16:08:33;2.95;;;1.73;;
24897;SDS011;12957;49.434;8.684;2022-08-04T16:16:45;2.13;;;1.60;;
24897;SDS011;12957;49.434;8.684;2022-08-04T16:21:55;1.67;;;1.50;;
24897;SDS011;12957;49.434;8.684;2022-08-04T16:24:35;1.73;;;1.63;;
24897;SDS011;12957;49.434;8.684;2022-08-04T16:27:05;3.00;;;1.63;;
24897;SDS011;12957;49.434;8.684;2022-08-04T16:34:28;1.52;;;1.42;;
24897;SDS011;12957;49.434;8.684;2022-08-04T16:36:54;2.65;;;1.55;;
24897;SDS011;12957;49.434;8.684;2022-08-04T16:39:20;2.75;;;1.90;;
24897;SDS011;12957;49.434;8.684;2022-08-04T16:41:45;1.73;;;1.63;;
24897;SDS011;12957;49.434;8.684;2022-08-04T16:44:35;1.63;;;1.52;;
24897;SDS011;12957;49.434;8.684;2022-08-04T16:47:06;1.50;;;1.50;;
24897;SDS011;12957;49.434;8.684;2022-08-04T16:49:32;3.30;;;1.73;;
24897;SDS011;12957;49.434;8.684;2022-08-04T16:52:01;1.55;;;1.55;;
24897;SDS011;12957;49.434;8.684;2022-08-04T16:54:32;1.48;;;1.48;;
24897;SDS011;12957;49.434;8.684;2022-08-04T16:56:59;1.85;;;1.70;;
24897;SDS011;12957;49.434;8.684;2022-08-04T16:59:25;2.08;;;1.45;;
24897;SDS011;12957;49.434;8.684;2022-08-04T17:01:52;1.63;;;1.52;;
24897;SDS011;12957;49.434;8.684;2022-08-04T17:04:31;3.35;;;1.90;;
24897;SDS011;12957;49.434;8.684;2022-08-04T17:06:59;1.98;;;1.73;;
24897;SDS011;12957;49.434;8.684;2022-08-04T17:09:25;6.85;;;1.73;;
24897;SDS011;12957;49.434;8.684;2022-08-04T17:11:52;1.83;;;1.70;;
24897;SDS011;12957;49.434;8.684;2022-08-04T17:14:21;1.77;;;1.67;;
24897;SDS011;12957;49.434;8.684;2022-08-04T17:16:51;1.45;;;1.45;;
24897;SDS011;12957;49.434;8.684;2022-08-04T17:19:17;2.35;;;1.50;;
24897;SDS011;12957;49.434;8.684;2022-08-04T17:21:43;2.30;;;1.70;;
24897;SDS011;12957;49.434;8.684;2022-08-04T17:24:09;1.70;;;1.60;;
24897;SDS011;12957;49.434;8.684;2022-08-04T17:26:35;3.60;;;1.77;;
24897;SDS011;12957;49.434;8.684;2022-08-04T17:29:02;1.50;;;1.50;;
24897;SDS011;12957;49.434;8.684;2022-08-04T17:31:29;1.33;;;1.33;;
24897;SDS011;12957;49.434;8.684;2022-08-04T17:33:56;1.67;;;1.58;;
24897;SDS011;12957;49.434;8.684;2022-08-04T17:36:23;1.60;;;1.50;;
24897;SDS011;12957;49.434;8.684;2022-08-04T17:38:53;1.63;;;1.55;;
24897;SDS011;12957;49.434;8.684;2022-08-04T17:41:21;1.45;;;1.45;;
24897;SDS011;12957;49.434;8.684;2022-08-04T17:49:08;2.95;;;1.58;;
24897;SDS011;12957;49.434;8.684;2022-08-04T17:51:40;2.33;;;1.40;;
24897;SDS011;12957;49.434;8.684;2022-08-04T17:54:34;2.75;;;1.52;;
24897;SDS011;12957;49.434;8.684;2022-08-04T17:57:12;1.58;;;1.42;;
24897;SDS011;12957;49.434;8.684;2022-08-04T17:59:40;1.50;;;1.40;;
24897;SDS011;12957;49.434;8.684;2022-08-04T18:02:06;1.38;;;1.38;;
24897;SDS011;12957;49.434;8.684;2022-08-04T18:09:39;1.48;;;1.48;;
24897;SDS011;12957;49.434;8.684;2022-08-04T18:12:09;2.65;;;1.70;;
24897;SDS011;12957;49.434;8.684;2022-08-04T18:14:46;3.25;;;1.67;;
24897;SDS011;12957;49.434;8.684;2022-08-04T18:17:13;1.60;;;1.50;;
24897;SDS011;12957;49.434;8.684;2022-08-04T18:19:51;1.70;;;1.60;;
24897;SDS011;12957;49.434;8.684;2022-08-04T18:22:17;3.17;;;1.80;;
24897;SDS011;12957;49.434;8.684;2022-08-04T18:24:43;1.67;;;1.50;;
24897;SDS011;12957;49.434;8.684;2022-08-04T18:27:08;3.95;;;1.60;;
24897;SDS011;12957;49.434;8.684;2022-08-04T18:29:34;2.85;;;1.67;;
24897;SDS011;12957;49.434;8.684;2022-08-04T18:31:59;3.75;;;1.40;;
24897;SDS011;12957;49.434;8.684;2022-08-04T18:34:25;1.77;;;1.35;;
24897;SDS011;12957;49.434;8.684;2022-08-04T18:36:50;3.28;;;1.63;;
24897;SDS011;12957;49.434;8.684;2022-08-04T18:39:16;1.33;;;1.33;;
24897;SDS011;12957;49.434;8.684;2022-08-04T18:41:42;1.40;;;1.30;;
24897;SDS011;12957;49.434;8.684;2022-08-04T18:44:08;1.20;;;1.20;;
24897;SDS011;12957;49.434;8.684;2022-08-04T18:46:34;1.38;;;1.38;;
24897;SDS011;12957;49.434;8.684;2022-08-04T18:48:59;1.60;;;1.60;;
24897;SDS011;12957;49.434;8.684;2022-08-04T18:51:25;2.38;;;1.65;;
24897;SDS011;12957;49.434;8.684;2022-08-04T18:53:51;2.70;;;1.83;;
24897;SDS011;12957;49.434;8.684;2022-08-04T18:56:16;1.55;;;1.45;;
24897;SDS011;12957;49.434;8.684;2022-08-04T18:58:42;2.78;;;1.60;;
24897;SDS011;12957;49.434;8.684;2022-08-04T19:01:08;1.60;;;1.60;;
24897;SDS011;12957;49.434;8.684;2022-08-04T19:03:35;2.95;;;1.92;;
24897;SDS011;12957;49.434;8.684;2022-08-04T19:06:00;1.70;;;1.60;;
24897;SDS011;12957;49.434;8.684;2022-08-04T19:08:28;1.65;;;1.55;;
24897;SDS011;12957;49.434;8.684;2022-08-04T19:10:54;1.88;;;1.77;;
24897;SDS011;12957;49.434;8.684;2022-08-04T19:13:19;3.65;;;1.67;;
24897;SDS011;12957;49.434;8.684;2022-08-04T19:15:45;1.70;;;1.60;;
24897;SDS011;12957;49.434;8.684;2022-08-04T19:18:10;1.92;;;1.58;;
24897;SDS011;12957;49.434;8.684;2022-08-04T19:20:36;3.13;;;1.58;;
24897;SDS011;12957;49.434;8.684;2022-08-04T19:23:01;2.00;;;1.73;;
24897;SDS011;12957;49.434;8.684;2022-08-04T19:25:27;2.42;;;1.70;;
24897;SDS011;12957;49.434;8.684;2022-08-04T19:27:52;3.53;;;1.70;;
24897;SDS011;12957;49.434;8.684;2022-08-04T19:30:18;2.50;;;1.63;;
24897;SDS011;12957;49.434;8.684;2022-08-04T19:32:43;1.92;;;1.52;;
24897;SDS011;12957;49.434;8.684;2022-08-04T19:35:09;3.13;;;1.60;;
24897;SDS011;12957;49.434;8.684;2022-08-04T19:37:34;2.35;;;1.75;;
24897;SDS011;12957;49.434;8.684;2022-08-04T19:40:00;4.93;;;1.50;;
24897;SDS011;12957;49.434;8.684;2022-08-04T19:42:25;1.95;;;1.83;;
24897;SDS011;12957;49.434;8.684;2022-08-04T19:44:52;4.57;;;1.88;;
24897;SDS011;12957;49.434;8.684;2022-08-04T19:47:18;4.13;;;2.00;;
24897;SDS011;12957;49.434;8.684;2022-08-04T19:49:43;2.15;;;1.90;;
24897;SDS011;12957;49.434;8.684;2022-08-04T19:52:09;2.13;;;2.03;;
24897;SDS011;12957;49.434;8.684;2022-08-04T19:54:34;3.35;;;1.90;;
24897;SDS011;12957;49.434;8.684;2022-08-04T19:57:00;3.15;;;1.90;;
24897;SDS011;12957;49.434;8.684;2022-08-04T19:59:25;3.35;;;2.03;;
24897;SDS011;12957;49.434;8.684;2022-08-04T20:01:51;1.90;;;1.80;;
24897;SDS011;12957;49.434;8.684;2022-08-04T20:04:16;2.10;;;2.00;;
24897;SDS011;12957;49.434;8.684;2022-08-04T20:06:42;2.10;;;1.90;;